Weather at Aeropuerto Internacional de Chichen Itza

Public forecast

Using degrees Celsius for public forecast. Weather courtesy of forecast.io.

Current aviation weather report (METAR) for Aeropuerto Internacional de Chichen Itza

Report is more than 2 hours old.

2024/07/13 23:42 (retrieved 3 hours ago)

MMCT 132342Z 00000KT 7SM SCT020CB SCT100 BKN250 32/24 A3006 RMK 8/363 HZY

Closest aviation forecast (TAF) to Aeropuerto Internacional de Chichen Itza

Forecast is more than 6 hours old.

Closest forecast is Vilo Acuña International Airport, 390.8 nm (723.8 km) E.

2024/07/13 18:00 (retrieved 8 hours ago)

TAF MUCL 131700Z 1318/1406 12010KT 9000 SCT020 TEMPO 1318/1320 FEW018CB BKN020